Time;durP1;ratioP1;P1;durP2;ratioP2;P2;SDS_P1;SDS_P2;PMS_P1;PMS_P2;Temp;Humidity;BMP_temperature;BMP_pressure;BME280_temperature;BME280_humidity;BME280_pressure;Samples;Min_cycle;Max_cycle;Signal;HPM_P1;HPM_P2
2021/12/11 00:02:02;;;;;;;42.70;25.30;;;1.80;99.90;;;;;;5035299;28;20196;-72
2021/12/11 00:04:33;;;;;;;46.67;24.30;;;1.80;99.90;;;;;;5030816;28;20681;-72
2021/12/11 00:07:02;;;;;;;39.67;22.57;;;1.80;99.90;;;;;;5037070;28;20194;-73
2021/12/11 00:09:38;;;;;;;39.00;20.50;;;1.80;99.90;;;;;;5028973;28;20239;-73
2021/12/11 00:12:22;;;;;;;36.90;23.03;;;1.80;99.90;;;;;;5039327;28;20710;-72
2021/12/11 00:14:57;;;;;;;38.67;22.63;;;1.90;99.90;;;;;;5041609;28;20257;-73
2021/12/11 00:17:28;;;;;;;36.10;20.37;;;1.90;99.90;;;;;;5044341;28;20176;-71
2021/12/11 00:19:54;;;;;;;32.20;20.27;;;1.80;99.90;;;;;;5042311;28;20256;-73
2021/12/11 00:22:24;;;;;;;35.90;21.07;;;1.80;99.90;;;;;;5045455;28;20194;-73
2021/12/11 00:24:50;;;;;;;34.73;19.43;;;1.90;99.90;;;;;;5026789;28;20213;-75
2021/12/11 00:27:21;;;;;;;32.10;20.83;;;1.90;99.90;;;;;;5046152;28;20191;-74
2021/12/11 00:29:48;;;;;;;31.43;18.93;;;1.90;99.90;;;;;;5040831;28;20257;-77
2021/12/11 00:32:24;;;;;;;35.53;20.77;;;2.00;99.90;;;;;;5053703;28;20200;-77
2021/12/11 00:34:52;;;;;;;31.47;18.47;;;2.00;99.90;;;;;;5035600;28;20205;-73
2021/12/11 00:37:22;;;;;;;36.27;19.17;;;2.00;99.90;;;;;;5031846;28;20265;-74
2021/12/11 00:39:59;;;;;;;37.13;20.97;;;2.10;99.90;;;;;;5034712;28;20691;-74
2021/12/11 00:42:33;;;;;;;40.47;20.33;;;2.10;99.90;;;;;;5023292;28;20187;-74
2021/12/11 00:45:00;;;;;;;32.10;19.10;;;2.00;99.90;;;;;;5033658;28;20206;-75
2021/12/11 00:47:28;;;;;;;35.87;20.93;;;1.80;99.90;;;;;;5039801;28;20190;-73
2021/12/11 00:49:59;;;;;;;40.93;22.37;;;1.60;99.90;;;;;;5032467;28;20197;-73
2021/12/11 00:52:36;;;;;;;41.17;21.73;;;1.60;99.90;;;;;;5031378;28;20700;-79
2021/12/11 00:55:15;;;;;;;43.57;22.10;;;1.60;99.90;;;;;;5033238;28;20657;-77
2021/12/11 00:57:41;;;;;;;35.80;20.67;;;1.60;99.90;;;;;;5032330;28;20686;-74
2021/12/11 01:00:11;;;;;;;36.00;22.53;;;1.60;99.90;;;;;;5032965;28;20181;-75
2021/12/11 01:02:38;;;;;;;40.50;21.57;;;1.50;99.90;;;;;;5032399;28;20242;-76
2021/12/11 01:05:08;;;;;;;39.33;22.67;;;1.50;99.90;;;;;;5031111;28;20183;-77
2021/12/11 01:07:34;;;;;;;40.90;20.13;;;1.50;99.90;;;;;;5036270;28;20186;-75
2021/12/11 01:10:17;;;;;;;41.97;22.43;;;1.50;99.90;;;;;;5035362;28;20184;-76
2021/12/11 01:12:51;;;;;;;31.10;19.93;;;1.50;99.90;;;;;;5026006;28;20537;-76
2021/12/11 01:15:32;;;;;;;39.27;21.90;;;1.50;99.90;;;;;;5037246;28;20234;-76
2021/12/11 01:18:21;;;;;;;39.90;21.67;;;1.60;99.90;;;;;;5030599;28;20657;-74
2021/12/11 01:21:02;;;;;;;37.90;21.00;;;1.60;99.90;;;;;;5035414;28;20185;-73
2021/12/11 01:25:58;;;;;;;41.93;21.87;;;1.80;99.90;;;;;;5038493;28;20201;-74
2021/12/11 01:28:24;;;;;;;36.80;22.63;;;1.70;99.90;;;;;;5038965;28;20199;-75
2021/12/11 01:30:50;;;;;;;36.43;20.27;;;1.70;99.90;;;;;;5040954;28;20194;-75
2021/12/11 01:33:15;;;;;;;37.93;22.23;;;1.70;99.90;;;;;;5036462;28;20220;-75
2021/12/11 01:35:41;;;;;;;37.17;20.93;;;1.70;99.90;;;;;;5039755;28;20191;-76
2021/12/11 01:38:11;;;;;;;30.53;20.43;;;1.70;99.90;;;;;;5038166;28;20681;-75
2021/12/11 01:40:38;;;;;;;38.23;21.07;;;1.70;99.90;;;;;;5038404;28;20179;-75
2021/12/11 01:43:06;;;;;;;33.43;20.73;;;1.70;99.90;;;;;;5034647;28;20220;-77
2021/12/11 01:45:34;;;;;;;30.43;20.27;;;1.70;99.90;;;;;;5033655;28;20182;-73
2021/12/11 01:47:59;;;;;;;34.80;21.83;;;1.70;99.90;;;;;;5035036;28;20309;-74
2021/12/11 01:50:39;;;;;;;32.07;20.57;;;1.70;99.90;;;;;;5035300;28;20278;-75
2021/12/11 01:53:14;;;;;;;34.37;21.57;;;1.70;99.90;;;;;;5037818;28;20201;-73
2021/12/11 01:56:08;;;;;;;36.60;22.00;;;1.60;99.90;;;;;;5029295;28;20620;-74
2021/12/11 01:58:39;;;;;;;39.87;21.23;;;1.60;99.90;;;;;;5033617;28;20298;-73
2021/12/11 02:01:18;;;;;;;38.53;22.30;;;1.50;99.90;;;;;;5033332;28;20724;-73
2021/12/11 02:03:44;;;;;;;37.87;23.27;;;1.50;99.90;;;;;;5034682;28;20685;-73
2021/12/11 02:06:10;;;;;;;39.97;22.00;;;1.50;99.90;;;;;;5034767;28;20199;-71
2021/12/11 02:08:39;;;;;;;37.50;22.37;;;1.50;99.90;;;;;;5035469;28;20183;-64
2021/12/11 02:11:14;;;;;;;42.67;23.33;;;1.50;99.90;;;;;;5034601;28;20730;-65
2021/12/11 02:13:50;;;;;;;38.23;23.60;;;1.50;99.90;;;;;;5042356;28;20273;-65
2021/12/11 02:16:38;;;;;;;38.67;22.57;;;1.50;99.90;;;;;;5037332;28;20270;-64
2021/12/11 02:19:12;;;;;;;42.60;22.67;;;1.60;99.90;;;;;;5027251;28;20226;-64
2021/12/11 02:22:07;;;;;;;39.47;21.17;;;1.60;99.90;;;;;;5026228;28;20286;-65
2021/12/11 02:24:36;;;;;;;42.43;24.17;;;1.60;99.90;;;;;;5027453;28;20194;-65
2021/12/11 02:27:09;;;;;;;39.73;24.23;;;1.50;99.90;;;;;;5033866;28;20210;-64
2021/12/11 02:29:42;;;;;;;37.93;22.60;;;1.60;99.90;;;;;;5026953;28;20569;-64
2021/12/11 02:32:22;;;;;;;41.40;22.30;;;1.60;99.90;;;;;;5025384;28;20211;-64
2021/12/11 02:34:55;;;;;;;36.73;22.43;;;1.70;99.90;;;;;;5027217;28;20227;-63
2021/12/11 02:37:37;;;;;;;40.00;23.27;;;1.70;99.90;;;;;;5040485;28;20203;-64
2021/12/11 02:40:22;;;;;;;34.87;21.77;;;1.80;99.90;;;;;;5026948;28;20601;-64
2021/12/11 02:42:57;;;;;;;34.37;21.60;;;1.80;99.90;;;;;;5027192;28;20647;-65
2021/12/11 02:45:31;;;;;;;35.37;20.63;;;1.90;99.90;;;;;;5044604;28;20772;-64
2021/12/11 02:48:09;;;;;;;33.10;20.60;;;1.90;99.90;;;;;;5051464;28;20193;-64
2021/12/11 02:50:41;;;;;;;33.70;20.00;;;2.00;99.90;;;;;;5041452;28;20219;-64
2021/12/11 02:53:27;;;;;;;35.37;20.47;;;2.00;99.90;;;;;;5037980;28;20742;-64
2021/12/11 02:56:19;;;;;;;34.43;20.83;;;2.00;99.90;;;;;;5052513;28;20227;-64
2021/12/11 02:58:50;;;;;;;36.77;21.70;;;1.90;99.90;;;;;;5034878;28;20190;-63
2021/12/11 03:01:30;;;;;;;32.23;20.10;;;1.80;99.90;;;;;;5037600;28;20229;-63
2021/12/11 03:04:18;;;;;;;35.17;21.70;;;1.60;99.90;;;;;;5038025;28;20235;-64
2021/12/11 03:06:46;;;;;;;36.97;22.07;;;1.60;99.90;;;;;;5029511;28;20196;-65
2021/12/11 03:09:17;;;;;;;34.77;20.97;;;1.70;99.90;;;;;;5048230;28;20197;-64
2021/12/11 03:11:43;;;;;;;34.77;20.63;;;1.70;99.90;;;;;;5041482;28;20211;-64
2021/12/11 03:14:13;;;;;;;38.47;23.40;;;1.80;99.90;;;;;;5045682;28;20245;-64
2021/12/11 03:16:39;;;;;;;39.23;22.30;;;1.80;99.90;;;;;;5045225;28;20226;-63
2021/12/11 03:19:09;;;;;;;40.60;22.53;;;1.80;99.90;;;;;;5053566;28;20199;-64
2021/12/11 03:21:36;;;;;;;42.00;22.70;;;1.90;99.90;;;;;;5045274;28;20200;-64
2021/12/11 03:24:02;;;;;;;39.77;20.90;;;1.90;99.90;;;;;;5060215;28;20227;-64
2021/12/11 03:26:28;;;;;;;34.17;21.33;;;1.80;99.90;;;;;;5044983;28;20211;-65
2021/12/11 03:28:53;;;;;;;35.70;21.07;;;1.80;99.90;;;;;;5044935;28;20261;-65
2021/12/11 03:31:19;;;;;;;43.17;24.77;;;1.80;99.90;;;;;;5051916;28;20257;-65
2021/12/11 03:33:55;;;;;;;42.30;25.10;;;1.80;99.90;;;;;;5039050;28;20249;-65
2021/12/11 03:36:23;;;;;;;44.80;23.97;;;1.70;99.90;;;;;;5026449;28;20273;-65
2021/12/11 03:38:56;;;;;;;38.07;21.90;;;1.70;99.90;;;;;;5029805;28;21080;-65
2021/12/11 03:41:23;;;;;;;43.53;24.77;;;1.60;99.90;;;;;;5025457;28;20188;-65
2021/12/11 03:43:49;;;;;;;43.23;23.77;;;1.60;99.90;;;;;;5037170;28;20203;-65
2021/12/11 03:46:16;;;;;;;42.23;23.70;;;1.60;99.90;;;;;;5054471;28;20195;-64
2021/12/11 03:48:51;;;;;;;39.17;23.77;;;1.60;99.90;;;;;;5038491;28;20204;-64
2021/12/11 03:51:19;;;;;;;42.40;23.40;;;1.70;99.90;;;;;;5025754;28;20627;-64
2021/12/11 03:53:46;;;;;;;36.67;23.27;;;1.70;99.90;;;;;;5031207;28;20265;-64
2021/12/11 03:56:14;;;;;;;38.57;21.70;;;1.70;99.90;;;;;;5051351;28;20213;-65
2021/12/11 03:58:48;;;;;;;40.90;22.70;;;1.70;99.90;;;;;;5038161;28;20206;-63
2021/12/11 04:01:24;;;;;;;35.90;21.00;;;1.70;99.90;;;;;;5025806;28;20198;-63
2021/12/11 04:03:53;;;;;;;48.83;23.57;;;1.70;99.90;;;;;;5024356;28;20661;-65
2021/12/11 04:06:22;;;;;;;49.20;23.10;;;1.70;99.90;;;;;;5049474;28;20243;-65
2021/12/11 04:08:48;;;;;;;42.57;24.13;;;1.70;99.90;;;;;;5033870;28;20210;-64
2021/12/11 04:11:23;;;;;;;43.23;21.80;;;1.70;99.90;;;;;;5058709;28;20194;-65
2021/12/11 04:13:53;;;;;;;50.50;25.80;;;1.70;99.90;;;;;;5030947;28;20210;-65
2021/12/11 04:16:19;;;;;;;44.23;23.77;;;1.70;99.90;;;;;;5053785;28;20233;-66
2021/12/11 04:18:46;;;;;;;53.13;25.53;;;1.60;99.90;;;;;;5043690;28;20187;-63
2021/12/11 04:21:11;;;;;;;43.20;23.77;;;1.60;99.90;;;;;;5058027;28;20292;-64
2021/12/11 04:23:37;;;;;;;44.20;23.47;;;1.60;99.90;;;;;;5033361;28;20300;-67
2021/12/11 04:26:04;;;;;;;43.77;23.17;;;1.70;99.90;;;;;;5044470;28;20197;-66
2021/12/11 04:28:34;;;;;;;48.20;26.40;;;1.70;99.90;;;;;;5044002;28;20567;-68
2021/12/11 04:31:05;;;;;;;39.00;22.73;;;1.80;99.90;;;;;;5056206;28;20202;-68
2021/12/11 04:33:39;;;;;;;38.03;21.47;;;1.80;99.90;;;;;;5024431;28;20226;-68
2021/12/11 04:36:16;;;;;;;47.43;22.93;;;1.70;99.90;;;;;;5059914;28;20203;-65
2021/12/11 04:38:43;;;;;;;44.60;22.83;;;1.70;99.90;;;;;;5023641;28;20290;-67
2021/12/11 04:41:16;;;;;;;41.73;23.43;;;1.70;99.90;;;;;;5048710;28;20275;-65
2021/12/11 04:43:43;;;;;;;47.23;23.70;;;1.70;99.90;;;;;;5023722;28;20723;-68
2021/12/11 04:46:11;;;;;;;44.07;25.13;;;1.70;99.90;;;;;;5054426;28;20205;-64
2021/12/11 04:48:55;;;;;;;41.07;24.67;;;1.70;99.90;;;;;;5039062;28;20284;-65
2021/12/11 04:51:36;;;;;;;44.70;23.53;;;1.70;99.90;;;;;;5040901;28;20198;-64
2021/12/11 04:54:32;;;;;;;48.40;23.77;;;1.70;99.90;;;;;;5034121;28;20261;-64
2021/12/11 04:57:37;;;;;;;41.77;22.93;;;1.70;99.90;;;;;;5027594;28;20242;-65
2021/12/11 05:05:44;;;;;;;36.60;21.10;;;1.50;99.90;;;;;;5034821;28;20191;-64
2021/12/11 05:10:53;;;;;;;41.23;20.00;;;1.30;99.90;;;;;;5062931;28;20191;-65
2021/12/11 05:13:21;;;;;;;35.93;20.73;;;1.30;99.90;;;;;;5039107;28;20689;-65
2021/12/11 05:15:50;;;;;;;42.27;20.87;;;1.30;99.90;;;;;;5048977;28;20775;-66
2021/12/11 05:18:21;;;;;;;38.60;20.17;;;1.30;99.90;;;;;;5042334;28;20218;-65
2021/12/11 05:20:51;;;;;;;37.27;18.87;;;1.30;99.90;;;;;;5029007;28;20227;-65
2021/12/11 05:23:16;;;;;;;40.57;18.73;;;1.40;99.90;;;;;;5044238;28;20203;-65
2021/12/11 05:25:43;;;;;;;43.73;20.93;;;1.30;99.90;;;;;;5061440;28;20248;-66
2021/12/11 05:28:09;;;;;;;39.00;18.33;;;1.40;99.90;;;;;;5043790;28;20206;-65
2021/12/11 05:30:39;;;;;;;42.20;19.60;;;1.40;99.90;;;;;;5066088;28;20610;-66
2021/12/11 05:33:06;;;;;;;38.17;19.27;;;1.40;99.90;;;;;;5045245;28;20678;-66
2021/12/11 05:35:34;;;;;;;45.93;19.80;;;1.40;99.90;;;;;;5050148;28;20673;-65
2021/12/11 05:38:01;;;;;;;42.03;19.53;;;1.40;99.90;;;;;;5046949;28;20214;-65
2021/12/11 05:40:28;;;;;;;37.83;19.37;;;1.40;99.90;;;;;;5059816;28;20288;-65
2021/12/11 05:42:55;;;;;;;38.43;19.30;;;1.40;99.90;;;;;;5044557;28;20719;-64
2021/12/11 05:45:21;;;;;;;43.53;20.23;;;1.40;99.90;;;;;;5066858;28;20220;-65
2021/12/11 05:47:47;;;;;;;39.67;18.30;;;1.40;99.90;;;;;;5038900;28;20663;-65
2021/12/11 05:50:17;;;;;;;43.27;20.00;;;1.40;99.90;;;;;;5055376;28;20577;-64
2021/12/11 05:52:44;;;;;;;49.47;21.97;;;1.40;99.90;;;;;;5026613;28;20209;-65
2021/12/11 05:55:14;;;;;;;39.97;19.80;;;1.30;99.90;;;;;;5045987;28;20567;-64
2021/12/11 05:57:41;;;;;;;40.23;20.07;;;1.30;99.90;;;;;;5026122;28;20269;-65
2021/12/11 06:00:10;;;;;;;39.87;18.80;;;1.30;99.90;;;;;;5041473;28;20191;-64
2021/12/11 06:02:36;;;;;;;44.93;20.80;;;1.30;99.90;;;;;;5041656;28;20280;-64
2021/12/11 06:05:03;;;;;;;38.33;19.40;;;1.30;99.90;;;;;;5027064;28;20236;-64
2021/12/11 06:07:30;;;;;;;42.27;20.53;;;1.30;99.90;;;;;;5052222;28;20305;-65
2021/12/11 06:10:00;;;;;;;47.73;21.67;;;1.20;99.90;;;;;;5031717;28;20194;-64
2021/12/11 06:12:28;;;;;;;45.37;21.30;;;1.20;99.90;;;;;;5031049;28;20224;-64
2021/12/11 06:14:54;;;;;;;48.67;21.03;;;1.10;99.90;;;;;;5039985;28;20237;-65
2021/12/11 06:17:26;;;;;;;46.93;21.53;;;1.10;99.90;;;;;;5045800;28;20206;-65
2021/12/11 06:19:54;;;;;;;44.53;19.40;;;1.10;99.90;;;;;;5043366;28;20189;-64
2021/12/11 06:22:24;;;;;;;37.80;18.03;;;1.10;99.90;;;;;;5056149;28;20198;-65
2021/12/11 06:24:50;;;;;;;40.47;20.60;;;1.00;99.90;;;;;;5042835;28;20667;-65
2021/12/11 06:27:16;;;;;;;43.27;19.33;;;1.00;99.90;;;;;;5043040;28;20198;-66
2021/12/11 06:29:42;;;;;;;44.73;19.40;;;1.00;99.90;;;;;;5035401;28;20208;-65
2021/12/11 06:32:08;;;;;;;49.30;23.30;;;1.00;99.90;;;;;;5048106;28;20188;-65
2021/12/11 06:34:34;;;;;;;47.77;20.43;;;1.10;99.90;;;;;;5032186;28;20210;-64
2021/12/11 06:37:01;;;;;;;45.13;19.57;;;1.10;99.90;;;;;;5055752;28;20690;-65
2021/12/11 06:39:26;;;;;;;43.87;21.90;;;1.00;99.90;;;;;;5034895;28;20218;-64
2021/12/11 06:42:01;;;;;;;37.70;19.57;;;1.10;99.90;;;;;;5045161;28;20474;-64
2021/12/11 06:44:28;;;;;;;41.37;21.27;;;1.10;99.90;;;;;;5038623;28;20741;-65
2021/12/11 06:47:00;;;;;;;46.13;20.63;;;1.20;99.90;;;;;;5051743;28;20292;-65
2021/12/11 06:49:29;;;;;;;41.40;20.00;;;1.20;99.90;;;;;;5038364;28;20656;-67
2021/12/11 06:51:55;;;;;;;40.70;19.90;;;1.20;99.90;;;;;;5048263;28;20374;-67
2021/12/11 06:54:21;;;;;;;42.90;20.20;;;1.30;99.90;;;;;;5035172;28;20666;-67
2021/12/11 06:56:48;;;;;;;40.07;19.63;;;1.40;99.90;;;;;;5041328;28;20344;-65
2021/12/11 06:59:14;;;;;;;33.00;18.80;;;1.40;99.90;;;;;;5038366;28;20574;-66
2021/12/11 07:01:41;;;;;;;42.77;21.77;;;1.40;99.90;;;;;;5036871;28;20206;-65
2021/12/11 07:04:09;;;;;;;42.57;20.03;;;1.50;99.90;;;;;;5033454;28;20232;-66
2021/12/11 07:06:37;;;;;;;41.17;21.43;;;1.50;99.90;;;;;;5038104;28;20274;-65
2021/12/11 07:09:05;;;;;;;34.67;19.33;;;1.50;99.90;;;;;;5032174;28;20247;-65
2021/12/11 07:11:32;;;;;;;37.13;20.17;;;1.60;99.90;;;;;;5034272;28;20286;-63
2021/12/11 07:13:58;;;;;;;43.57;21.37;;;1.70;99.90;;;;;;5035671;28;20288;-65
2021/12/11 07:16:24;;;;;;;45.77;21.23;;;1.70;99.90;;;;;;5037152;28;20564;-65
2021/12/11 07:18:50;;;;;;;37.97;21.17;;;1.70;99.90;;;;;;5036680;28;20191;-66
2021/12/11 07:21:16;;;;;;;40.00;20.90;;;1.60;99.90;;;;;;5036437;28;20680;-66
2021/12/11 07:23:47;;;;;;;44.60;20.50;;;1.60;99.90;;;;;;5036043;28;20561;-65
2021/12/11 07:26:22;;;;;;;45.93;20.53;;;1.50;99.90;;;;;;5033721;28;20188;-63
2021/12/11 07:28:52;;;;;;;36.87;18.83;;;1.40;99.90;;;;;;5032186;28;20207;-69
2021/12/11 07:31:18;;;;;;;42.17;18.87;;;1.40;99.90;;;;;;5038224;28;20730;-65
2021/12/11 07:33:44;;;;;;;37.43;19.57;;;1.30;99.90;;;;;;5036146;28;20714;-65
2021/12/11 07:36:10;;;;;;;36.10;19.63;;;1.30;99.90;;;;;;5037683;28;20788;-65
2021/12/11 07:38:36;;;;;;;40.70;20.27;;;1.20;99.90;;;;;;5034972;28;20278;-65
2021/12/11 07:41:07;;;;;;;40.30;20.40;;;1.10;99.90;;;;;;5041513;28;20560;-64
2021/12/11 07:43:33;;;;;;;44.43;20.67;;;1.00;99.90;;;;;;5027239;28;20340;-66
2021/12/11 07:45:59;;;;;;;39.00;18.23;;;1.10;99.90;;;;;;5030726;28;20692;-66
2021/12/11 07:48:25;;;;;;;35.93;18.00;;;1.10;99.90;;;;;;5039123;28;20312;-65
2021/12/11 07:50:51;;;;;;;36.30;15.77;;;1.10;99.90;;;;;;5038004;28;20232;-65
2021/12/11 07:53:18;;;;;;;39.30;18.70;;;1.10;99.90;;;;;;5032973;28;20229;-66
2021/12/11 07:55:45;;;;;;;36.20;17.87;;;1.10;99.90;;;;;;5043630;28;20196;-66
2021/12/11 07:58:14;;;;;;;35.80;17.20;;;1.10;99.90;;;;;;5041524;28;20207;-66
2021/12/11 08:00:42;;;;;;;30.63;16.90;;;1.20;99.90;;;;;;5042311;28;20196;-70
2021/12/11 08:03:09;;;;;;;31.90;14.60;;;1.20;99.90;;;;;;5039238;28;20303;-63
2021/12/11 08:05:37;;;;;;;33.00;16.03;;;1.50;99.90;;;;;;5036559;28;20251;-66
2021/12/11 08:08:06;;;;;;;34.00;15.33;;;1.80;99.90;;;;;;5033315;28;20292;-65
2021/12/11 08:10:33;;;;;;;27.40;14.67;;;1.90;99.90;;;;;;5038988;28;20684;-64
2021/12/11 08:13:04;;;;;;;32.53;15.70;;;1.90;99.90;;;;;;5031054;28;20254;-65
2021/12/11 08:15:29;;;;;;;28.20;14.77;;;1.90;99.90;;;;;;5041562;28;20238;-76
2021/12/11 08:17:55;;;;;;;35.83;16.97;;;2.00;99.90;;;;;;5044013;28;20304;-64
2021/12/11 08:20:30;;;;;;;35.60;16.83;;;1.90;99.90;;;;;;5057166;28;20198;-64
2021/12/11 08:22:57;;;;;;;32.17;16.60;;;1.70;99.90;;;;;;5030929;28;20220;-64
2021/12/11 08:25:26;;;;;;;32.33;17.30;;;1.70;99.90;;;;;;5059527;28;20190;-73
2021/12/11 08:27:54;;;;;;;28.53;13.27;;;1.60;99.90;;;;;;5049428;28;20627;-72
2021/12/11 08:30:19;;;;;;;30.60;15.77;;;1.50;99.90;;;;;;5045893;28;20218;-70
2021/12/11 08:32:45;;;;;;;28.63;13.97;;;1.50;99.90;;;;;;5046351;28;20295;-71
2021/12/11 08:35:13;;;;;;;29.60;15.50;;;1.30;99.90;;;;;;5059902;28;20214;-71
2021/12/11 08:37:45;;;;;;;26.07;13.83;;;1.20;99.90;;;;;;5044143;28;20197;-74
2021/12/11 08:40:15;;;;;;;26.47;14.03;;;1.20;99.90;;;;;;5039679;28;20188;-71
2021/12/11 08:42:41;;;;;;;25.80;11.87;;;1.30;99.90;;;;;;5037172;28;20203;-72
2021/12/11 08:45:11;;;;;;;20.60;10.90;;;1.20;99.90;;;;;;5042112;28;20666;-71
2021/12/11 08:47:41;;;;;;;21.70;12.23;;;1.20;99.90;;;;;;5040010;28;20207;-72
2021/12/11 08:50:11;;;;;;;21.73;12.03;;;1.10;99.90;;;;;;5039833;28;20534;-72
2021/12/11 08:52:41;;;;;;;22.70;12.03;;;1.10;99.90;;;;;;5045381;28;20669;-72
2021/12/11 08:55:10;;;;;;;23.00;13.70;;;1.20;99.90;;;;;;5040761;28;20690;-72
2021/12/11 08:57:40;;;;;;;20.43;12.30;;;1.10;99.90;;;;;;5062579;28;20204;-73
2021/12/11 09:00:31;;;;;;;22.00;13.43;;;1.00;99.90;;;;;;5037699;28;20198;-73
2021/12/11 09:03:05;;;;;;;20.10;11.80;;;0.90;99.90;;;;;;5035995;28;20608;-70
2021/12/11 09:05:48;;;;;;;20.50;12.27;;;1.00;99.90;;;;;;5043481;28;20721;-71
2021/12/11 09:08:34;;;;;;;24.90;12.80;;;1.00;99.90;;;;;;5032450;28;20197;-69
2021/12/11 09:11:10;;;;;;;21.47;11.27;;;0.90;99.90;;;;;;5040523;28;20182;-70
2021/12/11 09:13:41;;;;;;;24.23;12.77;;;1.00;99.90;;;;;;5039025;28;20300;-73
2021/12/11 09:16:34;;;;;;;26.93;12.83;;;1.00;99.90;;;;;;5041410;28;20227;-70
2021/12/11 09:19:16;;;;;;;20.70;12.33;;;1.00;99.90;;;;;;5039913;28;20248;-70
2021/12/11 09:22:02;;;;;;;23.90;12.77;;;0.80;99.90;;;;;;5041012;28;20207;-76
2021/12/11 09:24:48;;;;;;;24.53;12.37;;;0.80;99.90;;;;;;5030700;28;20199;-68
2021/12/11 09:27:34;;;;;;;23.77;12.00;;;0.80;99.90;;;;;;5033426;28;20204;-68
2021/12/11 09:30:27;;;;;;;21.67;12.20;;;0.80;99.90;;;;;;5033051;28;20192;-68
2021/12/11 09:32:57;;;;;;;21.10;10.70;;;0.80;99.90;;;;;;5040462;28;20208;-72
2021/12/11 09:35:26;;;;;;;18.23;11.33;;;0.70;99.90;;;;;;5030796;28;20245;-74
2021/12/11 09:37:56;;;;;;;30.57;18.30;;;0.50;99.90;;;;;;5044669;28;20197;-73
2021/12/11 09:40:37;;;;;;;20.33;11.33;;;0.60;99.90;;;;;;5045937;28;20188;-73
2021/12/11 09:43:03;;;;;;;20.17;11.00;;;0.70;99.90;;;;;;5038888;28;20216;-73
2021/12/11 09:45:36;;;;;;;21.40;11.77;;;0.80;99.90;;;;;;5037984;28;20193;-69
2021/12/11 09:48:08;;;;;;;20.73;11.70;;;0.80;99.90;;;;;;5031995;28;20200;-71
2021/12/11 09:50:54;;;;;;;21.43;10.87;;;0.90;99.90;;;;;;5037797;28;20297;-71
2021/12/11 09:53:23;;;;;;;21.80;12.23;;;1.00;99.90;;;;;;5046684;28;20817;-72
2021/12/11 09:55:49;;;;;;;23.57;13.27;;;1.00;99.90;;;;;;5043137;28;20292;-71
2021/12/11 09:58:20;;;;;;;21.83;12.90;;;0.90;99.90;;;;;;5032233;28;20216;-71
2021/12/11 10:00:57;;;;;;;19.87;12.90;;;1.00;99.90;;;;;;5032397;28;20230;-71
2021/12/11 10:03:27;;;;;;;25.70;13.53;;;0.90;99.90;;;;;;5032529;28;20574;-71
2021/12/11 10:06:12;;;;;;;27.97;13.13;;;0.90;99.90;;;;;;5038804;28;20280;-72
2021/12/11 10:08:43;;;;;;;23.00;12.50;;;1.00;99.90;;;;;;5032551;28;20272;-74
2021/12/11 10:11:19;;;;;;;18.87;11.03;;;1.00;99.90;;;;;;5034223;28;20706;-69
2021/12/11 10:13:52;;;;;;;17.60;9.33;;;1.00;99.90;;;;;;5039970;28;20225;-71
2021/12/11 10:16:22;;;;;;;22.10;11.03;;;1.10;99.90;;;;;;5037809;28;20241;-74
2021/12/11 10:18:49;;;;;;;20.03;11.60;;;1.10;99.90;;;;;;5032186;28;20212;-72
2021/12/11 10:21:18;;;;;;;15.57;10.20;;;1.10;99.90;;;;;;5035584;28;20486;-71
2021/12/11 10:23:47;;;;;;;18.63;11.47;;;1.20;99.90;;;;;;5036461;28;20296;-71
2021/12/11 10:26:16;;;;;;;20.43;11.87;;;1.20;99.90;;;;;;5035886;28;20240;-71
2021/12/11 10:28:47;;;;;;;19.30;10.90;;;1.30;99.90;;;;;;5032270;28;20207;-72
2021/12/11 10:31:19;;;;;;;20.17;12.00;;;1.30;99.90;;;;;;5028104;28;20203;-72
2021/12/11 10:33:45;;;;;;;16.77;10.53;;;1.30;99.90;;;;;;5036642;28;20219;-70
2021/12/11 10:36:14;;;;;;;22.50;13.23;;;1.20;99.90;;;;;;5037658;28;20210;-67
2021/12/11 10:38:42;;;;;;;20.03;11.87;;;1.20;99.90;;;;;;5041402;28;20194;-67
2021/12/11 10:41:11;;;;;;;23.03;14.40;;;1.20;99.90;;;;;;5048345;28;20278;-67
2021/12/11 10:43:47;;;;;;;22.93;12.83;;;1.30;99.90;;;;;;5040909;28;20195;-67
2021/12/11 10:46:15;;;;;;;20.97;12.97;;;1.20;99.90;;;;;;5028083;28;20267;-67
2021/12/11 10:48:42;;;;;;;24.73;14.33;;;1.30;99.90;;;;;;5036337;28;20597;-67
2021/12/11 10:51:26;;;;;;;23.43;14.17;;;1.20;99.90;;;;;;5039038;28;20669;-67
2021/12/11 10:53:55;;;;;;;19.13;12.03;;;1.20;99.90;;;;;;5044791;28;20220;-67
2021/12/11 10:56:23;;;;;;;19.10;12.60;;;1.30;99.90;;;;;;5035732;28;20214;-68
2021/12/11 10:58:53;;;;;;;21.60;13.40;;;1.40;99.90;;;;;;5039671;28;20191;-68
2021/12/11 11:01:27;;;;;;;20.97;13.00;;;1.40;99.90;;;;;;5028008;28;20220;-68
2021/12/11 11:03:56;;;;;;;21.63;12.97;;;1.20;99.90;;;;;;5030653;28;20191;-68
2021/12/11 11:06:22;;;;;;;25.80;14.70;;;1.10;99.90;;;;;;5043432;28;20203;-68
2021/12/11 11:08:49;;;;;;;23.33;13.33;;;1.10;99.90;;;;;;5030477;28;20210;-67
2021/12/11 11:11:19;;;;;;;23.70;13.90;;;1.20;99.90;;;;;;5039473;28;20217;-69
2021/12/11 11:13:46;;;;;;;20.73;13.90;;;1.10;99.90;;;;;;5041377;28;20213;-67
2021/12/11 11:16:14;;;;;;;22.47;11.60;;;1.00;99.90;;;;;;5044265;28;20227;-66
2021/12/11 11:18:40;;;;;;;19.60;11.80;;;1.10;99.90;;;;;;5031762;28;20567;-66
2021/12/11 11:21:40;;;;;;;20.73;12.20;;;1.10;99.90;;;;;;5039908;28;20285;-66
2021/12/11 11:24:07;;;;;;;24.80;13.23;;;1.10;99.90;;;;;;5056137;28;20838;-66
2021/12/11 11:26:36;;;;;;;20.43;13.17;;;1.10;99.90;;;;;;5053600;28;20244;-67
2021/12/11 11:29:05;;;;;;;18.27;12.97;;;1.20;99.90;;;;;;5033219;28;20205;-67
2021/12/11 11:31:36;;;;;;;19.80;13.17;;;1.20;99.90;;;;;;5035674;28;20201;-67
2021/12/11 11:34:07;;;;;;;30.53;14.40;;;1.30;99.90;;;;;;5042029;28;20214;-67
2021/12/11 11:36:34;;;;;;;19.83;11.73;;;1.30;99.90;;;;;;5052817;28;20777;-67
2021/12/11 11:39:05;;;;;;;21.43;12.07;;;1.40;99.90;;;;;;5035106;28;20188;-67
2021/12/11 11:41:37;;;;;;;23.27;12.73;;;1.50;99.90;;;;;;5038313;28;20202;-67
2021/12/11 11:44:04;;;;;;;22.17;13.13;;;1.50;99.90;;;;;;5034572;28;20270;-66
2021/12/11 11:46:31;;;;;;;20.07;12.13;;;1.40;99.90;;;;;;5039975;28;20216;-66
2021/12/11 11:49:02;;;;;;;19.40;12.60;;;1.50;99.90;;;;;;5040122;28;20183;-66
2021/12/11 11:51:35;;;;;;;23.87;12.37;;;1.40;99.90;;;;;;5024655;28;20235;-67
2021/12/11 11:54:03;;;;;;;21.63;12.80;;;1.20;99.90;;;;;;5029098;28;20685;-68
2021/12/11 11:56:34;;;;;;;19.17;13.37;;;1.20;99.90;;;;;;5036388;28;20272;-68
2021/12/11 11:59:00;;;;;;;21.37;12.27;;;1.10;99.90;;;;;;5040325;28;20206;-67
2021/12/11 12:01:38;;;;;;;23.10;13.30;;;1.00;99.90;;;;;;5042278;28;20630;-68
2021/12/11 12:04:05;;;;;;;24.90;13.47;;;1.00;99.90;;;;;;5037300;28;20186;-70
2021/12/11 12:06:34;;;;;;;21.93;14.10;;;1.00;99.90;;;;;;5049151;28;20292;-70
2021/12/11 12:09:05;;;;;;;18.17;12.87;;;1.00;99.90;;;;;;5039669;28;20218;-70
2021/12/11 12:11:33;;;;;;;19.27;12.67;;;1.10;99.90;;;;;;5028438;28;20195;-71
2021/12/11 12:14:00;;;;;;;21.90;13.23;;;1.10;99.90;;;;;;5033053;28;20212;-70
2021/12/11 12:16:27;;;;;;;19.83;12.33;;;1.10;99.90;;;;;;5047425;28;20224;-69
2021/12/11 12:18:53;;;;;;;20.20;13.83;;;1.00;99.90;;;;;;5033863;28;20537;-68
2021/12/11 12:21:19;;;;;;;23.93;14.33;;;1.10;99.90;;;;;;5039350;28;20206;-69
2021/12/11 12:23:46;;;;;;;19.03;13.10;;;1.10;99.90;;;;;;5035232;28;20666;-69
2021/12/11 12:26:23;;;;;;;24.90;15.00;;;1.20;99.90;;;;;;5036099;28;20299;-69
2021/12/11 12:28:51;;;;;;;21.57;13.10;;;1.30;99.90;;;;;;5031653;28;20190;-69
2021/12/11 12:31:26;;;;;;;22.97;13.67;;;1.30;99.90;;;;;;5037781;28;20202;-69
2021/12/11 12:33:51;;;;;;;22.17;13.17;;;1.20;99.90;;;;;;5035848;28;20274;-67
2021/12/11 12:36:18;;;;;;;25.63;14.50;;;1.30;99.90;;;;;;5039799;28;20195;-67
2021/12/11 12:38:49;;;;;;;21.37;13.90;;;1.30;99.90;;;;;;5040688;28;20748;-70
2021/12/11 12:41:32;;;;;;;20.67;12.57;;;1.40;99.90;;;;;;5027386;28;20195;-69
2021/12/11 12:46:55;;;;;;;20.13;12.70;;;1.40;99.90;;;;;;5031597;28;20539;-69
2021/12/11 12:49:21;;;;;;;19.30;13.30;;;1.40;99.90;;;;;;5037451;28;20905;-69
2021/12/11 12:51:48;;;;;;;20.53;13.53;;;1.40;99.90;;;;;;5046298;28;20947;-69
2021/12/11 12:54:16;;;;;;;22.07;12.73;;;1.40;99.90;;;;;;5048640;28;20209;-69
2021/12/11 12:56:51;;;;;;;16.77;11.60;;;1.40;99.90;;;;;;5035022;28;20584;-69
2021/12/11 12:59:22;;;;;;;22.30;14.00;;;1.50;99.90;;;;;;5042464;28;20263;-68
2021/12/11 13:01:59;;;;;;;20.30;12.50;;;1.50;99.90;;;;;;5026206;28;20202;-70
2021/12/11 13:04:31;;;;;;;21.57;13.50;;;1.60;99.90;;;;;;5024862;28;20194;-70
2021/12/11 13:07:00;;;;;;;19.60;12.23;;;1.70;99.90;;;;;;5027028;28;20210;-70
2021/12/11 13:09:33;;;;;;;20.13;12.80;;;1.60;99.90;;;;;;5035606;28;20212;-70